Time;durP1;ratioP1;P1;durP2;ratioP2;P2;SDS_P1;SDS_P2;PMS_P1;PMS_P2;Temp;Humidity;BMP_temperature;BMP_pressure;BME280_temperature;BME280_humidity;BME280_pressure;Samples;Min_cycle;Max_cycle;Signal;HPM_P1;HPM_P2
2023/08/22 00:01:23;;;;;;;8.13;6.83;;;;;;;;;;4969209;28;20525;-92
2023/08/22 00:03:49;;;;;;;9.27;6.53;;;;;;;;;;4963405;28;20489;-92
2023/08/22 00:06:15;;;;;;;9.07;7.23;;;;;;;;;;4957969;29;20442;-92
2023/08/22 00:08:42;;;;;;;7.03;6.43;;;;;;;;;;4975689;28;20449;-92
2023/08/22 00:11:08;;;;;;;7.10;6.37;;;;;;;;;;4965521;28;20568;-92
2023/08/22 00:13:34;;;;;;;10.30;7.50;;;;;;;;;;4967857;28;20434;-93
2023/08/22 00:16:09;;;;;;;8.90;6.53;;;;;;;;;;4970082;28;20484;-92
2023/08/22 00:18:35;;;;;;;9.17;6.20;;;;;;;;;;4968630;28;20502;-92
2023/08/22 00:21:02;;;;;;;7.63;6.83;;;;;;;;;;4924357;29;20446;-93
2023/08/22 00:23:28;;;;;;;8.63;6.63;;;;;;;;;;4914856;29;20426;-92
2023/08/22 00:25:54;;;;;;;14.80;6.63;;;;;;;;;;4922399;29;20722;-92
2023/08/22 00:28:20;;;;;;;6.57;5.87;;;;;;;;;;4934679;29;20446;-92
2023/08/22 00:30:46;;;;;;;11.63;6.87;;;;;;;;;;4934774;29;20958;-92
2023/08/22 00:33:12;;;;;;;10.10;7.00;;;;;;;;;;4932233;29;20418;-92
2023/08/22 00:35:38;;;;;;;8.70;6.50;;;;;;;;;;4946343;29;21152;-92
2023/08/22 00:38:04;;;;;;;8.93;6.33;;;;;;;;;;4928977;28;20431;-92
2023/08/22 00:40:30;;;;;;;8.93;6.30;;;;;;;;;;4929792;29;20443;-92
2023/08/22 00:42:56;;;;;;;14.20;8.00;;;;;;;;;;4937055;28;20478;-92
2023/08/22 00:45:25;;;;;;;11.97;7.43;;;;;;;;;;4981592;28;20475;-92
2023/08/22 00:47:52;;;;;;;8.63;7.00;;;;;;;;;;4969537;28;20433;-92
2023/08/22 00:50:18;;;;;;;10.10;6.93;;;;;;;;;;4945646;28;20438;-91
2023/08/22 00:52:44;;;;;;;7.80;6.47;;;;;;;;;;4949217;28;20594;-92
2023/08/22 00:55:11;;;;;;;8.37;7.53;;;;;;;;;;4963426;28;21424;-92
2023/08/22 00:57:39;;;;;;;6.60;5.93;;;;;;;;;;4951876;28;20522;-91
2023/08/22 01:00:07;;;;;;;8.60;5.93;;;;;;;;;;4946757;28;20828;-93
2023/08/22 01:02:33;;;;;;;11.43;7.10;;;;;;;;;;4944493;28;20447;-93
2023/08/22 01:04:59;;;;;;;8.20;6.97;;;;;;;;;;4942757;28;20433;-92
2023/08/22 01:07:37;;;;;;;7.50;6.67;;;;;;;;;;4945599;29;20476;-93
2023/08/22 01:10:05;;;;;;;9.47;6.77;;;;;;;;;;4942178;29;20446;-92
2023/08/22 01:12:48;;;;;;;7.77;6.97;;;;;;;;;;4930610;29;20458;-93
2023/08/22 01:15:14;;;;;;;7.43;6.73;;;;;;;;;;4938539;28;20423;-92
2023/08/22 01:17:40;;;;;;;8.13;6.50;;;;;;;;;;4946584;29;21024;-92
2023/08/22 01:20:11;;;;;;;7.40;6.27;;;;;;;;;;4927863;29;20478;-92
2023/08/22 01:22:52;;;;;;;8.93;6.27;;;;;;;;;;4943527;28;20427;-93
2023/08/22 01:25:19;;;;;;;10.03;7.43;;;;;;;;;;4976300;28;20443;-92
2023/08/22 01:28:00;;;;;;;9.37;6.20;;;;;;;;;;4950751;28;20403;-92
2023/08/22 01:30:33;;;;;;;7.83;5.53;;;;;;;;;;4939553;28;20451;-89
2023/08/22 01:33:00;;;;;;;7.63;6.20;;;;;;;;;;4947193;29;20478;-90
2023/08/22 01:35:26;;;;;;;7.63;6.00;;;;;;;;;;4943466;29;20451;-90
2023/08/22 01:37:55;;;;;;;7.03;6.33;;;;;;;;;;4947717;29;20457;-91
2023/08/22 01:40:21;;;;;;;10.20;5.97;;;;;;;;;;4944830;29;20459;-90
2023/08/22 01:42:47;;;;;;;10.50;7.33;;;;;;;;;;4944674;29;20926;-90
2023/08/22 01:45:13;;;;;;;8.50;6.50;;;;;;;;;;4961593;28;20490;-90
2023/08/22 01:47:39;;;;;;;8.27;6.97;;;;;;;;;;4940563;29;20944;-89
2023/08/22 01:50:05;;;;;;;7.20;6.50;;;;;;;;;;4954362;28;20442;-90
2023/08/22 01:52:31;;;;;;;6.80;6.10;;;;;;;;;;4963950;28;20445;-90
2023/08/22 01:54:58;;;;;;;7.00;6.30;;;;;;;;;;4964058;28;20555;-90
2023/08/22 01:57:29;;;;;;;7.80;6.67;;;;;;;;;;4962636;28;21003;-90
2023/08/22 01:59:55;;;;;;;8.97;5.87;;;;;;;;;;4967783;28;20453;-90
2023/08/22 02:02:30;;;;;;;7.40;6.70;;;;;;;;;;4950428;28;20494;-91
2023/08/22 02:04:56;;;;;;;8.47;5.70;;;;;;;;;;4934064;28;20549;-90
2023/08/22 02:07:22;;;;;;;7.43;6.60;;;;;;;;;;4948910;28;20529;-90
2023/08/22 02:09:48;;;;;;;6.57;5.93;;;;;;;;;;4945265;28;20435;-90
2023/08/22 02:12:14;;;;;;;7.07;6.37;;;;;;;;;;4942180;28;20697;-90
2023/08/22 02:14:40;;;;;;;8.40;6.13;;;;;;;;;;4952457;28;20493;-90
2023/08/22 02:17:06;;;;;;;9.30;7.10;;;;;;;;;;4944482;29;20478;-91
2023/08/22 02:19:32;;;;;;;6.73;6.03;;;;;;;;;;4942433;28;20444;-90
2023/08/22 02:21:58;;;;;;;7.20;6.47;;;;;;;;;;4964069;28;20445;-91
2023/08/22 02:24:24;;;;;;;9.83;6.30;;;;;;;;;;4948492;28;20460;-90
2023/08/22 02:26:51;;;;;;;7.80;6.27;;;;;;;;;;4947445;28;20463;-90
2023/08/22 02:29:17;;;;;;;7.10;6.40;;;;;;;;;;4967996;28;20437;-90
2023/08/22 02:31:43;;;;;;;7.30;5.27;;;;;;;;;;4963312;28;21276;-91
2023/08/22 02:34:09;;;;;;;7.83;6.43;;;;;;;;;;4964252;28;20488;-90
2023/08/22 02:36:35;;;;;;;7.73;6.40;;;;;;;;;;4964311;28;20861;-90
2023/08/22 02:39:02;;;;;;;6.70;5.87;;;;;;;;;;4964154;28;20453;-90
2023/08/22 02:41:28;;;;;;;10.00;6.57;;;;;;;;;;4965645;28;20441;-90
2023/08/22 02:43:54;;;;;;;6.50;5.90;;;;;;;;;;4958176;28;20437;-90
2023/08/22 02:46:20;;;;;;;6.73;5.70;;;;;;;;;;4964900;28;20446;-90
2023/08/22 02:48:46;;;;;;;6.63;5.93;;;;;;;;;;4963567;28;20420;-90
2023/08/22 02:51:12;;;;;;;7.60;6.20;;;;;;;;;;4970986;28;20445;-90
2023/08/22 02:53:38;;;;;;;7.70;6.00;;;;;;;;;;4967857;28;20441;-90
2023/08/22 02:56:04;;;;;;;7.00;6.13;;;;;;;;;;4967469;28;20521;-90
2023/08/22 02:58:30;;;;;;;7.53;5.23;;;;;;;;;;4965573;28;20437;-90
2023/08/22 03:00:56;;;;;;;6.90;5.80;;;;;;;;;;4974946;28;20424;-90
2023/08/22 03:03:23;;;;;;;7.23;6.30;;;;;;;;;;4953152;29;20442;-90
2023/08/22 03:05:49;;;;;;;7.60;6.80;;;;;;;;;;4961309;28;20446;-90
2023/08/22 03:08:15;;;;;;;8.50;6.20;;;;;;;;;;4972077;28;20931;-91
2023/08/22 03:10:41;;;;;;;6.30;5.33;;;;;;;;;;4982740;28;20438;-90
2023/08/22 03:13:07;;;;;;;6.77;6.07;;;;;;;;;;4963814;28;20526;-90
2023/08/22 03:15:33;;;;;;;7.17;6.07;;;;;;;;;;4969940;28;21017;-89
2023/08/22 03:17:59;;;;;;;6.77;6.07;;;;;;;;;;4967651;28;20455;-90
2023/08/22 03:20:25;;;;;;;7.00;6.30;;;;;;;;;;4958504;28;20445;-90
2023/08/22 03:22:51;;;;;;;7.00;6.23;;;;;;;;;;4964146;28;20529;-91
2023/08/22 03:25:16;;;;;;;9.90;6.50;;;;;;;;;;4962275;28;20449;-90
2023/08/22 03:27:42;;;;;;;10.20;5.63;;;;;;;;;;4960973;28;20536;-90
2023/08/22 03:30:09;;;;;;;9.93;6.00;;;;;;;;;;4969154;28;20433;-91
2023/08/22 03:32:35;;;;;;;9.20;5.30;;;;;;;;;;4971971;28;20529;-90
2023/08/22 03:35:04;;;;;;;8.77;5.50;;;;;;;;;;4972156;28;20437;-92
2023/08/22 03:37:30;;;;;;;7.27;6.40;;;;;;;;;;4973040;28;20504;-90
2023/08/22 03:39:56;;;;;;;9.20;6.33;;;;;;;;;;4964159;28;20459;-91
2023/08/22 03:42:22;;;;;;;6.57;5.90;;;;;;;;;;4988507;28;20442;-91
2023/08/22 03:44:48;;;;;;;10.07;7.37;;;;;;;;;;4962413;28;20441;-90
2023/08/22 03:47:14;;;;;;;9.70;6.87;;;;;;;;;;4983668;28;20425;-90
2023/08/22 03:49:40;;;;;;;8.03;6.93;;;;;;;;;;4966432;28;20425;-90
2023/08/22 03:52:06;;;;;;;13.47;7.07;;;;;;;;;;4969515;28;20466;-91
2023/08/22 03:54:32;;;;;;;7.77;6.53;;;;;;;;;;4962347;28;20441;-90
2023/08/22 03:56:58;;;;;;;6.70;5.80;;;;;;;;;;4964616;28;20507;-90
2023/08/22 03:59:24;;;;;;;6.73;5.97;;;;;;;;;;4978652;28;20445;-90
2023/08/22 04:01:50;;;;;;;7.20;6.50;;;;;;;;;;4958105;28;20809;-90
2023/08/22 04:04:17;;;;;;;6.43;5.50;;;;;;;;;;4958256;28;20468;-91
2023/08/22 04:06:58;;;;;;;7.20;6.20;;;;;;;;;;4970392;28;20464;-90
2023/08/22 04:09:24;;;;;;;10.13;5.50;;;;;;;;;;4975173;28;21033;-90
2023/08/22 04:37:53;;;;;;;8.47;6.13;;;;;;;;;;4981770;28;20481;-89
2023/08/22 04:40:19;;;;;;;9.47;5.97;;;;;;;;;;4959798;28;20493;-89
2023/08/22 04:42:45;;;;;;;6.00;5.40;;;;;;;;;;4987443;28;20868;-89
2023/08/22 04:45:11;;;;;;;8.17;5.60;;;;;;;;;;4982455;28;20454;-89
2023/08/22 04:47:37;;;;;;;8.13;5.97;;;;;;;;;;4966768;28;20983;-88
2023/08/22 04:50:03;;;;;;;7.37;6.33;;;;;;;;;;4965195;28;20985;-90
2023/08/22 04:52:29;;;;;;;7.53;6.50;;;;;;;;;;4953768;28;20434;-90
2023/08/22 04:54:58;;;;;;;7.17;5.40;;;;;;;;;;4950947;28;20452;-91
2023/08/22 04:57:24;;;;;;;8.30;6.90;;;;;;;;;;4983889;28;20461;-89
2023/08/22 04:59:52;;;;;;;8.33;6.90;;;;;;;;;;4966068;28;20453;-90
2023/08/22 05:02:18;;;;;;;7.00;6.30;;;;;;;;;;4968856;28;20450;-89
2023/08/22 05:04:44;;;;;;;7.10;6.43;;;;;;;;;;4964136;28;20453;-89
2023/08/22 05:07:10;;;;;;;8.10;6.07;;;;;;;;;;4949473;28;20449;-88
2023/08/22 05:09:36;;;;;;;7.00;5.83;;;;;;;;;;4966514;28;20434;-89
2023/08/22 05:12:03;;;;;;;6.57;5.93;;;;;;;;;;4954507;28;20442;-89
2023/08/22 05:14:32;;;;;;;7.93;6.60;;;;;;;;;;4950743;28;20441;-90
2023/08/22 05:16:58;;;;;;;9.20;6.00;;;;;;;;;;4954452;28;20462;-89
2023/08/22 05:19:24;;;;;;;7.47;6.47;;;;;;;;;;4949129;28;20457;-91
2023/08/22 05:21:54;;;;;;;7.60;6.37;;;;;;;;;;4967300;28;20948;-89
2023/08/22 05:24:20;;;;;;;8.83;6.20;;;;;;;;;;4991182;28;20449;-91
2023/08/22 05:26:46;;;;;;;9.57;7.43;;;;;;;;;;4965644;28;20434;-91
2023/08/22 05:29:12;;;;;;;10.73;6.90;;;;;;;;;;4948192;28;20509;-91
2023/08/22 05:31:39;;;;;;;8.60;7.80;;;;;;;;;;4946822;28;20461;-91
2023/08/22 05:34:05;;;;;;;7.30;6.60;;;;;;;;;;4957668;29;20447;-91
2023/08/22 05:36:31;;;;;;;7.90;7.10;;;;;;;;;;4928597;29;20463;-92
2023/08/22 05:38:57;;;;;;;8.40;7.50;;;;;;;;;;4928468;29;20514;-90
2023/08/22 05:41:28;;;;;;;9.50;7.53;;;;;;;;;;4923595;29;20478;-91
2023/08/22 05:43:54;;;;;;;8.53;7.10;;;;;;;;;;4930655;29;20443;-91
2023/08/22 05:46:20;;;;;;;8.60;7.67;;;;;;;;;;4943050;29;20964;-91
2023/08/22 05:48:46;;;;;;;8.00;7.20;;;;;;;;;;4946097;29;20439;-91
2023/08/22 05:51:16;;;;;;;10.67;7.30;;;;;;;;;;4926518;29;20519;-91
2023/08/22 05:53:42;;;;;;;8.90;6.43;;;;;;;;;;4943974;28;20448;-91
2023/08/22 05:56:08;;;;;;;8.47;7.60;;;;;;;;;;4924861;29;20472;-91
2023/08/22 05:58:34;;;;;;;8.77;7.87;;;;;;;;;;4910913;29;20446;-91
2023/08/22 06:01:06;;;;;;;7.90;7.10;;;;;;;;;;4911876;29;20427;-91
2023/08/22 06:03:32;;;;;;;9.77;6.53;;;;;;;;;;4930631;29;20466;-90
2023/08/22 06:05:58;;;;;;;11.00;7.80;;;;;;;;;;4912276;29;20547;-90
2023/08/22 06:08:24;;;;;;;9.70;6.90;;;;;;;;;;4929409;29;20528;-91
2023/08/22 06:10:50;;;;;;;6.70;6.10;;;;;;;;;;4925617;29;20599;-91
2023/08/22 06:13:18;;;;;;;7.10;6.40;;;;;;;;;;4932728;29;20429;-90
2023/08/22 06:15:44;;;;;;;10.30;7.03;;;;;;;;;;4925690;29;20491;-90
2023/08/22 06:18:10;;;;;;;7.47;6.67;;;;;;;;;;4888731;29;20979;-91
2023/08/22 06:20:39;;;;;;;7.67;6.87;;;;;;;;;;4899552;29;20456;-90
2023/08/22 06:23:05;;;;;;;8.60;6.80;;;;;;;;;;4902987;29;20485;-91
2023/08/22 06:25:31;;;;;;;9.23;7.10;;;;;;;;;;4897072;29;20834;-90
2023/08/22 06:27:57;;;;;;;10.20;7.40;;;;;;;;;;4933779;29;20428;-91
2023/08/22 06:30:23;;;;;;;11.60;7.47;;;;;;;;;;4913733;29;20436;-91
2023/08/22 06:32:49;;;;;;;8.90;8.00;;;;;;;;;;4916032;29;20471;-91
2023/08/22 06:35:15;;;;;;;9.30;7.70;;;;;;;;;;4912558;29;20448;-90
2023/08/22 06:37:42;;;;;;;8.43;6.87;;;;;;;;;;4932650;29;20889;-90
2023/08/22 06:40:08;;;;;;;9.07;6.90;;;;;;;;;;4911442;29;20499;-90
2023/08/22 06:42:34;;;;;;;9.13;8.20;;;;;;;;;;4932578;29;20499;-90
2023/08/22 06:45:00;;;;;;;8.90;7.57;;;;;;;;;;4928610;29;20844;-90
2023/08/22 06:47:26;;;;;;;7.67;7.07;;;;;;;;;;4944278;29;20439;-91
2023/08/22 06:49:52;;;;;;;9.00;7.90;;;;;;;;;;4955100;28;20418;-90
2023/08/22 06:52:19;;;;;;;11.67;7.97;;;;;;;;;;4952257;28;20841;-91
2023/08/22 06:54:45;;;;;;;8.40;7.60;;;;;;;;;;4949370;28;20449;-90
2023/08/22 06:57:11;;;;;;;7.90;7.20;;;;;;;;;;4958194;28;20470;-90
2023/08/22 06:59:37;;;;;;;9.70;7.80;;;;;;;;;;4960179;28;20429;-91
2023/08/22 07:02:03;;;;;;;7.67;6.97;;;;;;;;;;4954762;28;20441;-91
2023/08/22 07:04:32;;;;;;;8.53;7.20;;;;;;;;;;4948228;28;20425;-91
2023/08/22 07:06:58;;;;;;;9.20;7.53;;;;;;;;;;4971334;28;20433;-91
2023/08/22 07:09:25;;;;;;;8.10;7.30;;;;;;;;;;4952579;28;20417;-90
2023/08/22 07:11:51;;;;;;;8.40;6.50;;;;;;;;;;4970622;28;20426;-90
2023/08/22 07:14:17;;;;;;;7.27;5.70;;;;;;;;;;4953453;28;20429;-91
2023/08/22 07:16:48;;;;;;;7.07;6.27;;;;;;;;;;4959159;28;20458;-91
2023/08/22 07:19:14;;;;;;;8.77;6.07;;;;;;;;;;4979612;28;20513;-93
2023/08/22 07:21:40;;;;;;;7.63;5.83;;;;;;;;;;4960825;28;20437;-91
2023/08/22 07:24:06;;;;;;;7.77;6.97;;;;;;;;;;4982033;28;20929;-91
2023/08/22 07:26:32;;;;;;;6.67;5.40;;;;;;;;;;4953237;28;20437;-90
2023/08/22 07:28:59;;;;;;;6.67;6.00;;;;;;;;;;4975711;28;20808;-91
2023/08/22 07:31:25;;;;;;;6.13;5.50;;;;;;;;;;4950216;28;20434;-91
2023/08/22 07:33:51;;;;;;;6.90;6.10;;;;;;;;;;4958574;28;21018;-92
2023/08/22 07:36:21;;;;;;;5.97;5.37;;;;;;;;;;4957098;28;20528;-91
2023/08/22 07:38:47;;;;;;;12.70;5.80;;;;;;;;;;4972415;28;20448;-92
2023/08/22 07:41:13;;;;;;;8.77;5.47;;;;;;;;;;4956258;28;20445;-90
2023/08/22 07:43:39;;;;;;;5.73;5.17;;;;;;;;;;4962130;28;20465;-92
2023/08/22 07:46:05;;;;;;;7.47;5.70;;;;;;;;;;4966558;28;20442;-91
2023/08/22 07:48:32;;;;;;;5.47;4.60;;;;;;;;;;4982641;28;20432;-92
2023/08/22 09:11:26;;;;;;;6.23;5.40;;;;;;;;;;5011602;28;20477;-91
2023/08/22 09:13:53;;;;;;;6.37;5.77;;;;;;;;;;4991385;28;20445;-91
2023/08/22 09:16:19;;;;;;;7.27;6.50;;;;;;;;;;4971012;28;20453;-92
2023/08/22 09:18:45;;;;;;;12.13;7.37;;;;;;;;;;4968333;28;20433;-92
2023/08/22 09:21:14;;;;;;;7.00;6.40;;;;;;;;;;4977984;28;20429;-93
2023/08/22 09:23:42;;;;;;;8.43;6.37;;;;;;;;;;4974951;28;20871;-92
2023/08/22 09:26:08;;;;;;;6.97;6.27;;;;;;;;;;4979672;28;20492;-92
2023/08/22 09:28:39;;;;;;;7.40;6.63;;;;;;;;;;4978651;28;20452;-91
2023/08/22 09:31:11;;;;;;;6.03;5.43;;;;;;;;;;4983543;28;20392;-91
2023/08/22 09:33:47;;;;;;;7.67;6.97;;;;;;;;;;4968783;28;20768;-92
2023/08/22 09:36:13;;;;;;;8.07;7.17;;;;;;;;;;4966457;28;20453;-91
2023/08/22 09:38:53;;;;;;;6.93;5.90;;;;;;;;;;4970283;28;20425;-92
2023/08/22 09:41:25;;;;;;;6.67;5.83;;;;;;;;;;4972876;28;20432;-91
2023/08/22 09:43:57;;;;;;;7.07;6.47;;;;;;;;;;4970920;28;20429;-92
2023/08/22 09:46:23;;;;;;;6.80;6.17;;;;;;;;;;4987720;28;20441;-91
2023/08/22 09:48:49;;;;;;;6.17;5.57;;;;;;;;;;4960672;28;20521;-93
2023/08/22 09:51:17;;;;;;;9.90;6.40;;;;;;;;;;4964017;28;20437;-92
2023/08/22 09:53:43;;;;;;;9.00;6.10;;;;;;;;;;4968184;28;20428;-92
2023/08/22 09:56:09;;;;;;;6.60;6.00;;;;;;;;;;4971475;28;20484;-93
2023/08/22 09:58:35;;;;;;;7.93;6.40;;;;;;;;;;4964365;28;20454;-93
2023/08/22 10:01:02;;;;;;;6.90;5.43;;;;;;;;;;4966018;28;20957;-92
2023/08/22 10:03:28;;;;;;;9.33;6.90;;;;;;;;;;4955981;29;20435;-92
2023/08/22 10:06:08;;;;;;;5.93;5.37;;;;;;;;;;4957340;28;20433;-92
2023/08/22 10:08:34;;;;;;;8.23;6.43;;;;;;;;;;4960372;28;20525;-93
2023/08/22 10:11:00;;;;;;;7.03;5.73;;;;;;;;;;4963524;28;20493;-92
2023/08/22 10:13:26;;;;;;;9.07;5.70;;;;;;;;;;4953932;28;20843;-92
2023/08/22 10:15:52;;;;;;;6.80;6.20;;;;;;;;;;4975761;28;20504;-91
2023/08/22 10:18:22;;;;;;;6.43;5.83;;;;;;;;;;4990452;28;20388;-93
2023/08/22 10:20:48;;;;;;;6.43;5.47;;;;;;;;;;4972985;28;20486;-91
2023/08/22 10:23:15;;;;;;;7.33;5.17;;;;;;;;;;4971360;28;20441;-92
2023/08/22 10:25:48;;;;;;;7.27;5.97;;;;;;;;;;4961136;28;20469;-92
2023/08/22 10:28:14;;;;;;;7.37;5.47;;;;;;;;;;4980696;28;20426;-92
2023/08/22 10:30:59;;;;;;;6.60;5.80;;;;;;;;;;4971160;28;20429;-92
2023/08/22 10:33:28;;;;;;;6.93;6.00;;;;;;;;;;4989302;28;20477;-92
2023/08/22 10:36:13;;;;;;;6.40;5.80;;;;;;;;;;4969248;28;20436;-92
2023/08/22 10:38:52;;;;;;;7.33;6.10;;;;;;;;;;5009712;28;20468;-92
2023/08/22 10:41:22;;;;;;;6.07;5.23;;;;;;;;;;4970030;28;20416;-92
2023/08/22 10:43:48;;;;;;;7.87;5.80;;;;;;;;;;4973429;28;20429;-91
2023/08/22 10:46:14;;;;;;;8.87;5.50;;;;;;;;;;4982875;28;20493;-92
2023/08/22 10:48:40;;;;;;;6.67;5.80;;;;;;;;;;4962675;28;20440;-92
2023/08/22 10:51:07;;;;;;;5.73;4.80;;;;;;;;;;4951245;28;20478;-92
2023/08/22 10:53:46;;;;;;;7.43;6.63;;;;;;;;;;4961244;28;20421;-92
2023/08/22 10:56:19;;;;;;;7.13;6.40;;;;;;;;;;4969659;28;20500;-92
2023/08/22 10:59:07;;;;;;;6.07;5.57;;;;;;;;;;4959898;28;20441;-94
2023/08/22 11:01:33;;;;;;;8.70;6.07;;;;;;;;;;4965476;28;20417;-92
2023/08/22 11:03:59;;;;;;;6.30;5.70;;;;;;;;;;4945395;28;20454;-92
2023/08/22 11:16:46;;;;;;;6.23;5.63;;;;;;;;;;5006977;28;20503;-90
2023/08/22 11:19:12;;;;;;;7.13;6.30;;;;;;;;;;4966868;28;20422;-90
2023/08/22 11:21:39;;;;;;;6.13;5.53;;;;;;;;;;4976360;28;20489;-90
2023/08/22 11:24:05;;;;;;;7.27;6.27;;;;;;;;;;4992744;28;20496;-90
2023/08/22 11:26:31;;;;;;;6.20;5.30;;;;;;;;;;4987044;28;20424;-91
2023/08/22 11:28:57;;;;;;;6.20;5.60;;;;;;;;;;4977845;28;20417;-90
2023/08/22 11:31:23;;;;;;;6.70;5.47;;;;;;;;;;4979719;28;20423;-91
2023/08/22 11:33:49;;;;;;;5.90;4.90;;;;;;;;;;4968558;28;20438;-90
2023/08/22 11:36:16;;;;;;;7.10;4.67;;;;;;;;;;4958740;28;20469;-90
2023/08/22 11:38:42;;;;;;;6.93;4.47;;;;;;;;;;4961515;28;20418;-90
2023/08/22 11:41:08;;;;;;;5.63;5.13;;;;;;;;;;4974105;28;20447;-91
2023/08/22 11:43:35;;;;;;;5.27;4.77;;;;;;;;;;4965660;28;20517;-90
2023/08/22 11:46:05;;;;;;;5.93;5.17;;;;;;;;;;4984012;28;20441;-92
2023/08/22 11:48:31;;;;;;;8.77;5.77;;;;;;;;;;4938320;28;20476;-89
2023/08/22 11:51:03;;;;;;;5.47;4.90;;;;;;;;;;4972132;28;20438;-91
2023/08/22 11:53:30;;;;;;;6.87;5.60;;;;;;;;;;4981411;28;20453;-90
2023/08/22 11:55:56;;;;;;;5.73;5.23;;;;;;;;;;4964721;28;20457;-89
2023/08/22 11:58:22;;;;;;;6.13;5.30;;;;;;;;;;4979527;28;20442;-89
2023/08/22 12:00:53;;;;;;;10.20;5.70;;;;;;;;;;4968910;28;20465;-90
2023/08/22 12:03:19;;;;;;;5.90;5.00;;;;;;;;;;4976992;28;20422;-89
2023/08/22 12:05:48;;;;;;;5.10;4.60;;;;;;;;;;4956570;28;20422;-89
2023/08/22 12:08:14;;;;;;;6.60;4.73;;;;;;;;;;4969317;28;20438;-89
2023/08/22 12:10:53;;;;;;;5.93;5.10;;;;;;;;;;4980485;28;20410;-89
2023/08/22 12:13:19;;;;;;;8.43;5.33;;;;;;;;;;4967134;28;20174;-89
2023/08/22 12:15:47;;;;;;;5.33;4.83;;;;;;;;;;4966613;28;20513;-90
2023/08/22 12:18:13;;;;;;;13.90;5.20;;;;;;;;;;4904912;29;20461;-91
2023/08/22 12:20:41;;;;;;;5.07;4.60;;;;;;;;;;4882973;29;20483;-91
2023/08/22 12:23:08;;;;;;;5.80;4.03;;;;;;;;;;4891873;29;20999;-90
2023/08/22 12:25:43;;;;;;;8.60;5.90;;;;;;;;;;4891479;29;20418;-89
2023/08/22 12:28:09;;;;;;;5.57;4.80;;;;;;;;;;4891479;29;20525;-89
2023/08/22 12:30:36;;;;;;;4.93;4.43;;;;;;;;;;4907805;29;20450;-89
2023/08/22 12:33:05;;;;;;;6.57;4.90;;;;;;;;;;4906294;29;20429;-88
2023/08/22 12:35:41;;;;;;;6.13;5.03;;;;;;;;;;4883900;29;20428;-89
2023/08/22 12:38:07;;;;;;;6.70;5.00;;;;;;;;;;4885963;29;20457;-89
2023/08/22 12:40:33;;;;;;;5.87;5.33;;;;;;;;;;4911497;29;20448;-89
2023/08/22 12:42:59;;;;;;;6.60;4.30;;;;;;;;;;4919267;29;20472;-90
2023/08/22 12:45:25;;;;;;;6.50;4.50;;;;;;;;;;4899783;29;20486;-91
2023/08/22 12:47:51;;;;;;;7.50;5.37;;;;;;;;;;4921536;29;20454;-90
2023/08/22 12:50:24;;;;;;;6.43;4.77;;;;;;;;;;4934541;29;20435;-89
2023/08/22 12:52:51;;;;;;;5.90;4.30;;;;;;;;;;4921007;29;20456;-89
2023/08/22 12:55:20;;;;;;;5.50;4.57;;;;;;;;;;4930329;29;20420;-91
2023/08/22 12:57:46;;;;;;;4.60;4.20;;;;;;;;;;4949678;28;20485;-90
2023/08/22 13:00:12;;;;;;;5.43;4.47;;;;;;;;;;4941502;29;20518;-90
2023/08/22 13:02:39;;;;;;;4.83;4.33;;;;;;;;;;4956231;28;20422;-90
2023/08/22 13:05:05;;;;;;;6.50;4.20;;;;;;;;;;4965129;28;20448;-90
2023/08/22 13:07:31;;;;;;;5.53;4.77;;;;;;;;;;4960297;28;20862;-91
2023/08/22 13:09:57;;;;;;;4.80;4.40;;;;;;;;;;4968557;28;20441;-90
2023/08/22 13:12:23;;;;;;;8.93;4.53;;;;;;;;;;4964253;28;20445;-90
2023/08/22 13:14:49;;;;;;;6.00;4.40;;;;;;;;;;4980510;28;20437;-89
2023/08/22 13:17:17;;;;;;;7.70;4.70;;;;;;;;;;4967454;28;20454;-90
2023/08/22 13:19:43;;;;;;;5.30;4.80;;;;;;;;;;4959494;28;20464;-89
2023/08/22 13:22:09;;;;;;;5.40;4.83;;;;;;;;;;4971732;28;20425;-89
2023/08/22 13:24:35;;;;;;;5.90;5.30;;;;;;;;;;4963813;28;20537;-90
2023/08/22 13:27:01;;;;;;;5.00;4.60;;;;;;;;;;4960491;28;20479;-90
2023/08/22 13:29:27;;;;;;;6.57;4.67;;;;;;;;;;4970218;28;20441;-90
2023/08/22 13:31:56;;;;;;;6.00;4.60;;;;;;;;;;4972572;28;20877;-90
2023/08/22 13:34:22;;;;;;;6.47;5.07;;;;;;;;;;4967404;28;20448;-90
2023/08/22 13:36:48;;;;;;;4.90;4.47;;;;;;;;;;4963994;28;20980;-89
2023/08/22 13:39:15;;;;;;;5.00;4.50;;;;;;;;;;4964478;28;20446;-90
2023/08/22 13:41:41;;;;;;;6.53;4.90;;;;;;;;;;4964064;28;20532;-90
2023/08/22 13:44:07;;;;;;;7.00;4.70;;;;;;;;;;4986487;28;20443;-90
2023/08/22 13:46:33;;;;;;;5.63;5.03;;;;;;;;;;4964753;28;20451;-90
2023/08/22 13:49:00;;;;;;;4.80;4.40;;;;;;;;;;4975443;28;20999;-91
2023/08/22 13:51:26;;;;;;;9.13;4.73;;;;;;;;;;4964175;28;20452;-89
2023/08/22 13:53:52;;;;;;;6.03;4.13;;;;;;;;;;4970206;28;20440;-89
2023/08/22 13:56:19;;;;;;;6.13;5.00;;;;;;;;;;4951276;29;20458;-90
2023/08/22 13:58:45;;;;;;;9.10;5.37;;;;;;;;;;4976971;28;20422;-90
2023/08/22 14:01:11;;;;;;;5.30;4.80;;;;;;;;;;4982168;28;20624;-90
2023/08/22 14:03:37;;;;;;;6.23;5.27;;;;;;;;;;4980375;28;20430;-91
2023/08/22 14:06:07;;;;;;;7.67;4.90;;;;;;;;;;4957455;28;20438;-89
2023/08/22 14:08:33;;;;;;;4.73;4.23;;;;;;;;;;4973731;28;20436;-89
2023/08/22 14:10:59;;;;;;;5.27;4.73;;;;;;;;;;4967113;28;20426;-89
2023/08/22 14:13:25;;;;;;;5.70;4.80;;;;;;;;;;4959161;28;20591;-89
2023/08/22 14:15:51;;;;;;;7.37;4.70;;;;;;;;;;4956433;28;20481;-90
2023/08/22 14:18:17;;;;;;;5.60;4.80;;;;;;;;;;4960252;29;20197;-90
2023/08/22 14:20:44;;;;;;;4.83;4.33;;;;;;;;;;4956705;28;20455;-89
2023/08/22 14:23:10;;;;;;;7.40;4.70;;;;;;;;;;4958193;28;20414;-87
2023/08/22 14:25:44;;;;;;;6.73;5.50;;;;;;;;;;4967455;28;20516;-88
2023/08/22 14:28:10;;;;;;;5.30;4.80;;;;;;;;;;4975683;28;20421;-89
2023/08/22 14:30:36;;;;;;;6.37;4.20;;;;;;;;;;4981648;28;20866;-89
2023/08/22 14:33:02;;;;;;;5.43;4.83;;;;;;;;;;4968842;28;20433;-89
2023/08/22 14:35:31;;;;;;;7.93;5.20;;;;;;;;;;4980110;28;20634;-92
2023/08/22 14:37:57;;;;;;;4.67;3.80;;;;;;;;;;4950525;28;20545;-91
2023/08/22 14:40:23;;;;;;;5.53;4.60;;;;;;;;;;4958273;28;20600;-91
2023/08/22 14:42:49;;;;;;;5.83;5.33;;;;;;;;;;4954069;28;20471;-92
2023/08/22 14:45:15;;;;;;;5.80;5.30;;;;;;;;;;4914045;29;20554;-90
2023/08/22 14:47:41;;;;;;;6.87;5.00;;;;;;;;;;4906133;29;20436;-90
2023/08/22 14:50:07;;;;;;;6.43;5.33;;;;;;;;;;4907348;29;20457;-90
2023/08/22 14:52:33;;;;;;;8.37;6.10;;;;;;;;;;4928495;29;20416;-92
2023/08/22 14:54:59;;;;;;;8.40;5.20;;;;;;;;;;4926168;29;20416;-91
2023/08/22 14:57:25;;;;;;;13.73;6.13;;;;;;;;;;4913419;29;20538;-91
2023/08/22 14:59:51;;;;;;;5.73;4.67;;;;;;;;;;4905096;29;20446;-89
2023/08/22 15:02:17;;;;;;;6.57;5.60;;;;;;;;;;4902361;29;20450;-92
2023/08/22 15:04:43;;;;;;;6.00;4.70;;;;;;;;;;4903350;29;20453;-90
2023/08/22 15:07:09;;;;;;;6.93;5.07;;;;;;;;;;4908498;29;20442;-91
2023/08/22 15:09:35;;;;;;;7.33;4.30;;;;;;;;;;4923216;29;20598;-90
2023/08/22 15:12:01;;;;;;;5.63;5.10;;;;;;;;;;4952495;28;20446;-90
2023/08/22 15:14:27;;;;;;;6.73;4.57;;;;;;;;;;4909749;29;20547;-90
2023/08/22 15:16:58;;;;;;;6.17;5.20;;;;;;;;;;4969974;28;20458;-90
2023/08/22 15:19:24;;;;;;;5.53;5.03;;;;;;;;;;4988157;28;20849;-91
2023/08/22 15:21:51;;;;;;;8.37;5.33;;;;;;;;;;4970214;28;20410;-91
2023/08/22 15:24:18;;;;;;;6.00;5.07;;;;;;;;;;4956539;28;20468;-89
2023/08/22 15:26:44;;;;;;;5.30;4.80;;;;;;;;;;4958411;28;20430;-90
2023/08/22 15:29:11;;;;;;;9.83;5.20;;;;;;;;;;4976300;28;20471;-89
2023/08/22 15:31:51;;;;;;;9.30;4.60;;;;;;;;;;4956812;28;20426;-89
2023/08/22 15:34:20;;;;;;;7.10;5.00;;;;;;;;;;4987244;28;20438;-91
2023/08/22 15:36:46;;;;;;;5.97;5.47;;;;;;;;;;4977790;28;20454;-89
2023/08/22 15:39:12;;;;;;;6.00;3.93;;;;;;;;;;4956595;28;20494;-89
2023/08/22 15:41:49;;;;;;;7.80;4.87;;;;;;;;;;4956358;28;20483;-89
2023/08/22 15:44:23;;;;;;;5.60;4.87;;;;;;;;;;4982653;28;20437;-88
2023/08/22 15:46:49;;;;;;;9.00;4.37;;;;;;;;;;4957974;28;20444;-90
2023/08/22 15:49:15;;;;;;;6.13;4.30;;;;;;;;;;4984640;28;20419;-89
2023/08/22 15:51:42;;;;;;;5.73;5.23;;;;;;;;;;4961637;28;20576;-90
2023/08/22 15:54:08;;;;;;;7.70;5.10;;;;;;;;;;4954225;28;20446;-90
2023/08/22 15:56:36;;;;;;;6.40;4.90;;;;;;;;;;4955747;28;20453;-90
2023/08/22 15:59:03;;;;;;;4.97;4.40;;;;;;;;;;4963373;28;20414;-90
2023/08/22 16:01:42;;;;;;;4.97;4.47;;;;;;;;;;4972357;28;20442;-90
2023/08/22 16:04:08;;;;;;;5.70;4.77;;;;;;;;;;4973068;28;20931;-91
2023/08/22 16:06:34;;;;;;;6.90;5.33;;;;;;;;;;4968080;28;20448;-89
2023/08/22 16:09:02;;;;;;;7.03;4.80;;;;;;;;;;4976200;28;20162;-91
2023/08/22 16:11:30;;;;;;;6.60;5.57;;;;;;;;;;4977284;28;20409;-91
2023/08/22 16:13:57;;;;;;;5.77;4.80;;;;;;;;;;4995044;28;20441;-91
2023/08/22 16:16:35;;;;;;;5.30;4.80;;;;;;;;;;4972861;28;20481;-90
2023/08/22 16:19:01;;;;;;;4.60;4.20;;;;;;;;;;4984809;28;20513;-92
2023/08/22 16:21:27;;;;;;;5.17;4.67;;;;;;;;;;4992171;28;20461;-92
2023/08/22 16:23:54;;;;;;;5.90;4.33;;;;;;;;;;4971181;28;20429;-90
2023/08/22 16:26:20;;;;;;;4.93;4.43;;;;;;;;;;4966489;28;20438;-91
2023/08/22 16:28:46;;;;;;;5.53;4.53;;;;;;;;;;4977902;28;20455;-92
2023/08/22 16:31:12;;;;;;;6.10;4.17;;;;;;;;;;4989170;28;20456;-92
2023/08/22 16:33:38;;;;;;;5.50;5.00;;;;;;;;;;4976512;28;20475;-92
2023/08/22 16:36:05;;;;;;;10.20;5.60;;;;;;;;;;4985012;28;20517;-93
2023/08/22 16:38:31;;;;;;;4.83;4.33;;;;;;;;;;4983869;28;20428;-92
2023/08/22 16:40:57;;;;;;;5.37;4.87;;;;;;;;;;4982535;28;20450;-89